Airport View

Enter AWOS ICAO identifier for current METAR.

ex. KFNL

KALB 202351Z 00000KT 10SM FEW180 FEW250 18/12 A3016 RMK AO2 SLP214 T01780122 10261 20178 53005

21 Sep 2019 00:54

Phone: 518-464-6423

Other Area AWOS: KSCH - KDDH - KNY0 - KAQW

TAF KALB 202340Z 2100/2124 18003KT P6SM FEW180 FEW250 FM210900 00000KT 2SM BR FEW130 FM211200 00000KT P6SM FEW150